sensor_id;sensor_type;location;lat;lon;timestamp;temperature;humidity
11812;DHT22;5963;50.184;9.162;2023-04-27T00:00:46;7.00;99.90
11812;DHT22;5963;50.184;9.162;2023-04-27T00:03:17;7.10;99.90
11812;DHT22;5963;50.184;9.162;2023-04-27T00:05:47;6.90;99.90
11812;DHT22;5963;50.184;9.162;2023-04-27T00:08:17;7.00;99.90
11812;DHT22;5963;50.184;9.162;2023-04-27T00:10:46;7.00;99.90
11812;DHT22;5963;50.184;9.162;2023-04-27T00:13:16;7.00;99.90
11812;DHT22;5963;50.184;9.162;2023-04-27T00:15:46;6.90;99.90
11812;DHT22;5963;50.184;9.162;2023-04-27T00:18:17;6.80;99.90
11812;DHT22;5963;50.184;9.162;2023-04-27T00:20:47;6.70;99.90
11812;DHT22;5963;50.184;9.162;2023-04-27T00:23:17;6.50;99.90
11812;DHT22;5963;50.184;9.162;2023-04-27T00:25:47;6.50;99.90
11812;DHT22;5963;50.184;9.162;2023-04-27T00:28:16;6.60;99.90
11812;DHT22;5963;50.184;9.162;2023-04-27T00:30:46;6.60;99.90
11812;DHT22;5963;50.184;9.162;2023-04-27T00:33:19;6.70;99.90
11812;DHT22;5963;50.184;9.162;2023-04-27T00:35:49;6.60;99.90
11812;DHT22;5963;50.184;9.162;2023-04-27T00:38:19;6.50;99.90
11812;DHT22;5963;50.184;9.162;2023-04-27T00:40:49;6.40;99.90
11812;DHT22;5963;50.184;9.162;2023-04-27T00:43:18;6.50;99.90
11812;DHT22;5963;50.184;9.162;2023-04-27T00:45:50;6.40;99.90
11812;DHT22;5963;50.184;9.162;2023-04-27T00:48:21;6.30;99.90
11812;DHT22;5963;50.184;9.162;2023-04-27T00:50:51;6.30;99.90
11812;DHT22;5963;50.184;9.162;2023-04-27T00:53:21;6.30;99.90
11812;DHT22;5963;50.184;9.162;2023-04-27T00:55:51;6.30;99.90
11812;DHT22;5963;50.184;9.162;2023-04-27T00:58:21;6.20;99.90
11812;DHT22;5963;50.184;9.162;2023-04-27T01:00:51;6.10;99.90
11812;DHT22;5963;50.184;9.162;2023-04-27T01:03:23;6.10;99.90
11812;DHT22;5963;50.184;9.162;2023-04-27T01:05:54;6.30;99.90
11812;DHT22;5963;50.184;9.162;2023-04-27T01:08:27;6.30;99.90
11812;DHT22;5963;50.184;9.162;2023-04-27T01:10:57;6.30;99.90
11812;DHT22;5963;50.184;9.162;2023-04-27T01:13:26;6.20;99.90
11812;DHT22;5963;50.184;9.162;2023-04-27T01:15:56;6.20;99.90
11812;DHT22;5963;50.184;9.162;2023-04-27T01:18:27;6.20;99.90
11812;DHT22;5963;50.184;9.162;2023-04-27T01:20:57;6.20;99.90
11812;DHT22;5963;50.184;9.162;2023-04-27T01:23:28;6.10;99.90
11812;DHT22;5963;50.184;9.162;2023-04-27T01:25:58;6.00;99.90
11812;DHT22;5963;50.184;9.162;2023-04-27T01:28:28;6.00;99.90
11812;DHT22;5963;50.184;9.162;2023-04-27T01:30:58;6.00;99.90
11812;DHT22;5963;50.184;9.162;2023-04-27T01:33:28;5.90;99.90
11812;DHT22;5963;50.184;9.162;2023-04-27T01:35:58;5.80;99.90
11812;DHT22;5963;50.184;9.162;2023-04-27T01:38:30;5.70;99.90
11812;DHT22;5963;50.184;9.162;2023-04-27T01:41:02;5.70;99.90
11812;DHT22;5963;50.184;9.162;2023-04-27T01:43:33;5.70;99.90
11812;DHT22;5963;50.184;9.162;2023-04-27T01:46:08;5.60;99.90
11812;DHT22;5963;50.184;9.162;2023-04-27T01:48:39;5.60;99.90
11812;DHT22;5963;50.184;9.162;2023-04-27T01:51:09;5.60;99.90
11812;DHT22;5963;50.184;9.162;2023-04-27T01:53:42;5.60;99.90
11812;DHT22;5963;50.184;9.162;2023-04-27T01:56:29;5.60;99.90
11812;DHT22;5963;50.184;9.162;2023-04-27T01:58:59;5.50;99.90
11812;DHT22;5963;50.184;9.162;2023-04-27T02:01:26;5.60;99.90
11812;DHT22;5963;50.184;9.162;2023-04-27T02:04:13;5.50;99.90
11812;DHT22;5963;50.184;9.162;2023-04-27T02:06:44;5.60;99.90
11812;DHT22;5963;50.184;9.162;2023-04-27T02:09:15;5.60;99.90
11812;DHT22;5963;50.184;9.162;2023-04-27T02:11:45;5.60;99.90
11812;DHT22;5963;50.184;9.162;2023-04-27T02:14:14;5.40;99.90
11812;DHT22;5963;50.184;9.162;2023-04-27T02:16:44;5.50;99.90
11812;DHT22;5963;50.184;9.162;2023-04-27T02:19:14;5.70;99.90
11812;DHT22;5963;50.184;9.162;2023-04-27T02:21:44;5.60;99.90
11812;DHT22;5963;50.184;9.162;2023-04-27T02:24:32;5.60;99.90
11812;DHT22;5963;50.184;9.162;2023-04-27T02:27:03;5.70;99.90
11812;DHT22;5963;50.184;9.162;2023-04-27T03:19:57;5.30;99.90
11812;DHT22;5963;50.184;9.162;2023-04-27T03:22:27;5.30;99.90
11812;DHT22;5963;50.184;9.162;2023-04-27T03:24:57;5.30;99.90
11812;DHT22;5963;50.184;9.162;2023-04-27T03:27:26;5.10;99.90
11812;DHT22;5963;50.184;9.162;2023-04-27T03:29:56;5.00;99.90
11812;DHT22;5963;50.184;9.162;2023-04-27T03:32:26;5.20;99.90
11812;DHT22;5963;50.184;9.162;2023-04-27T03:34:57;5.30;99.90
11812;DHT22;5963;50.184;9.162;2023-04-27T03:37:27;5.20;99.90
11812;DHT22;5963;50.184;9.162;2023-04-27T03:39:57;5.20;99.90
11812;DHT22;5963;50.184;9.162;2023-04-27T03:42:27;5.10;99.90
11812;DHT22;5963;50.184;9.162;2023-04-27T03:44:57;5.20;99.90
11812;DHT22;5963;50.184;9.162;2023-04-27T03:47:26;5.10;99.90
11812;DHT22;5963;50.184;9.162;2023-04-27T03:49:57;5.10;99.90
11812;DHT22;5963;50.184;9.162;2023-04-27T03:52:27;5.10;99.90
11812;DHT22;5963;50.184;9.162;2023-04-27T03:54:57;5.10;99.90
11812;DHT22;5963;50.184;9.162;2023-04-27T03:57:27;5.00;99.90
11812;DHT22;5963;50.184;9.162;2023-04-27T03:59:58;5.00;99.90
11812;DHT22;5963;50.184;9.162;2023-04-27T04:02:28;5.00;99.90
11812;DHT22;5963;50.184;9.162;2023-04-27T04:04:57;4.90;99.90
11812;DHT22;5963;50.184;9.162;2023-04-27T04:07:27;5.00;99.90
11812;DHT22;5963;50.184;9.162;2023-04-27T04:09:57;4.90;99.90
11812;DHT22;5963;50.184;9.162;2023-04-27T04:12:26;4.90;99.90
11812;DHT22;5963;50.184;9.162;2023-04-27T04:14:56;4.80;99.90
11812;DHT22;5963;50.184;9.162;2023-04-27T04:17:26;4.80;99.90
11812;DHT22;5963;50.184;9.162;2023-04-27T04:19:56;4.80;99.90
11812;DHT22;5963;50.184;9.162;2023-04-27T04:22:27;4.90;99.90
11812;DHT22;5963;50.184;9.162;2023-04-27T04:24:57;4.90;99.90
11812;DHT22;5963;50.184;9.162;2023-04-27T04:27:27;5.00;99.90
11812;DHT22;5963;50.184;9.162;2023-04-27T04:29:57;5.00;99.90
11812;DHT22;5963;50.184;9.162;2023-04-27T04:32:27;5.00;99.90
11812;DHT22;5963;50.184;9.162;2023-04-27T04:35:01;5.10;99.90
11812;DHT22;5963;50.184;9.162;2023-04-27T04:37:33;5.00;99.90
11812;DHT22;5963;50.184;9.162;2023-04-27T04:40:06;5.00;99.90
11812;DHT22;5963;50.184;9.162;2023-04-27T04:42:37;5.10;99.90
11812;DHT22;5963;50.184;9.162;2023-04-27T04:45:08;5.30;99.90
11812;DHT22;5963;50.184;9.162;2023-04-27T04:47:38;5.30;99.90
11812;DHT22;5963;50.184;9.162;2023-04-27T04:50:08;5.30;99.90
11812;DHT22;5963;50.184;9.162;2023-04-27T04:52:38;5.20;99.90
11812;DHT22;5963;50.184;9.162;2023-04-27T04:55:08;5.30;99.90
11812;DHT22;5963;50.184;9.162;2023-04-27T04:57:39;5.30;99.90
11812;DHT22;5963;50.184;9.162;2023-04-27T05:00:10;5.30;99.90
11812;DHT22;5963;50.184;9.162;2023-04-27T05:02:41;5.40;99.90
11812;DHT22;5963;50.184;9.162;2023-04-27T05:05:11;5.30;99.90
11812;DHT22;5963;50.184;9.162;2023-04-27T05:07:42;5.30;99.90
11812;DHT22;5963;50.184;9.162;2023-04-27T05:10:11;5.30;99.90
11812;DHT22;5963;50.184;9.162;2023-04-27T05:12:41;5.40;99.90
11812;DHT22;5963;50.184;9.162;2023-04-27T05:15:12;5.60;99.90
11812;DHT22;5963;50.184;9.162;2023-04-27T05:17:42;5.80;99.90
11812;DHT22;5963;50.184;9.162;2023-04-27T05:20:12;5.60;99.90
11812;DHT22;5963;50.184;9.162;2023-04-27T05:22:43;5.70;99.90
11812;DHT22;5963;50.184;9.162;2023-04-27T05:25:12;6.10;99.90
11812;DHT22;5963;50.184;9.162;2023-04-27T05:27:42;6.60;99.90
11812;DHT22;5963;50.184;9.162;2023-04-27T05:30:13;6.50;99.90
11812;DHT22;5963;50.184;9.162;2023-04-27T05:32:43;6.20;99.90
11812;DHT22;5963;50.184;9.162;2023-04-27T05:35:13;6.30;99.90
11812;DHT22;5963;50.184;9.162;2023-04-27T05:37:44;6.40;99.90
11812;DHT22;5963;50.184;9.162;2023-04-27T05:40:16;6.70;99.90
11812;DHT22;5963;50.184;9.162;2023-04-27T05:42:46;6.70;99.90
11812;DHT22;5963;50.184;9.162;2023-04-27T05:45:16;6.70;99.90
11812;DHT22;5963;50.184;9.162;2023-04-27T05:47:46;6.80;99.90
11812;DHT22;5963;50.184;9.162;2023-04-27T05:50:16;7.20;99.90
11812;DHT22;5963;50.184;9.162;2023-04-27T05:52:47;8.20;99.90
11812;DHT22;5963;50.184;9.162;2023-04-27T05:55:17;8.70;99.90
11812;DHT22;5963;50.184;9.162;2023-04-27T05:57:46;9.40;99.90
11812;DHT22;5963;50.184;9.162;2023-04-27T06:00:32;10.20;99.90
11812;DHT22;5963;50.184;9.162;2023-04-27T06:03:02;9.60;99.90
11812;DHT22;5963;50.184;9.162;2023-04-27T06:05:32;10.20;99.90
11812;DHT22;5963;50.184;9.162;2023-04-27T06:08:04;10.10;99.90
11812;DHT22;5963;50.184;9.162;2023-04-27T06:10:34;9.90;99.90
11812;DHT22;5963;50.184;9.162;2023-04-27T06:13:04;9.80;99.90
11812;DHT22;5963;50.184;9.162;2023-04-27T06:15:34;10.10;99.90
11812;DHT22;5963;50.184;9.162;2023-04-27T06:18:03;10.30;99.90
11812;DHT22;5963;50.184;9.162;2023-04-27T06:20:33;10.20;99.90
11812;DHT22;5963;50.184;9.162;2023-04-27T06:23:05;10.50;99.90
11812;DHT22;5963;50.184;9.162;2023-04-27T06:25:35;11.50;99.90
11812;DHT22;5963;50.184;9.162;2023-04-27T06:28:07;12.20;99.90
11812;DHT22;5963;50.184;9.162;2023-04-27T06:30:37;12.00;99.90
11812;DHT22;5963;50.184;9.162;2023-04-27T06:33:07;12.00;99.90
11812;DHT22;5963;50.184;9.162;2023-04-27T06:35:37;12.00;99.90
11812;DHT22;5963;50.184;9.162;2023-04-27T06:38:08;11.80;99.90
11812;DHT22;5963;50.184;9.162;2023-04-27T06:40:38;11.30;99.90
11812;DHT22;5963;50.184;9.162;2023-04-27T06:43:08;11.10;99.90
11812;DHT22;5963;50.184;9.162;2023-04-27T06:45:39;10.70;99.90
11812;DHT22;5963;50.184;9.162;2023-04-27T06:48:10;10.80;99.90
11812;DHT22;5963;50.184;9.162;2023-04-27T06:50:39;10.70;99.90
11812;DHT22;5963;50.184;9.162;2023-04-27T06:53:11;11.00;99.90
11812;DHT22;5963;50.184;9.162;2023-04-27T06:55:40;11.00;99.90
11812;DHT22;5963;50.184;9.162;2023-04-27T06:58:13;10.50;99.90
11812;DHT22;5963;50.184;9.162;2023-04-27T07:00:43;10.60;99.90
11812;DHT22;5963;50.184;9.162;2023-04-27T07:03:13;10.70;99.90
11812;DHT22;5963;50.184;9.162;2023-04-27T07:05:43;10.90;99.90
11812;DHT22;5963;50.184;9.162;2023-04-27T07:08:14;10.20;99.90
11812;DHT22;5963;50.184;9.162;2023-04-27T07:10:44;10.00;99.90
11812;DHT22;5963;50.184;9.162;2023-04-27T07:13:14;10.10;99.90
11812;DHT22;5963;50.184;9.162;2023-04-27T07:15:43;10.50;99.90
11812;DHT22;5963;50.184;9.162;2023-04-27T07:18:13;10.70;99.90
11812;DHT22;5963;50.184;9.162;2023-04-27T07:20:43;10.20;99.90
11812;DHT22;5963;50.184;9.162;2023-04-27T07:23:14;10.50;99.90
11812;DHT22;5963;50.184;9.162;2023-04-27T07:25:44;10.80;99.90
11812;DHT22;5963;50.184;9.162;2023-04-27T07:28:14;10.50;99.90
11812;DHT22;5963;50.184;9.162;2023-04-27T07:30:44;10.50;99.90
11812;DHT22;5963;50.184;9.162;2023-04-27T07:33:13;10.50;99.90
11812;DHT22;5963;50.184;9.162;2023-04-27T07:35:43;11.10;99.90
11812;DHT22;5963;50.184;9.162;2023-04-27T07:38:14;11.30;99.90
11812;DHT22;5963;50.184;9.162;2023-04-27T07:40:46;11.40;99.90
11812;DHT22;5963;50.184;9.162;2023-04-27T07:43:17;11.30;99.90
11812;DHT22;5963;50.184;9.162;2023-04-27T07:45:49;11.60;99.90
11812;DHT22;5963;50.184;9.162;2023-04-27T07:48:19;11.80;99.90
11812;DHT22;5963;50.184;9.162;2023-04-27T07:50:48;12.10;99.90
11812;DHT22;5963;50.184;9.162;2023-04-27T07:53:19;12.10;99.90
11812;DHT22;5963;50.184;9.162;2023-04-27T07:55:49;12.50;99.90
11812;DHT22;5963;50.184;9.162;2023-04-27T07:58:19;12.50;99.90
11812;DHT22;5963;50.184;9.162;2023-04-27T08:00:49;12.60;99.90
11812;DHT22;5963;50.184;9.162;2023-04-27T08:03:18;12.60;99.60
11812;DHT22;5963;50.184;9.162;2023-04-27T08:05:50;12.20;99.20
11812;DHT22;5963;50.184;9.162;2023-04-27T08:08:21;12.20;99.90
11812;DHT22;5963;50.184;9.162;2023-04-27T08:10:51;12.50;99.90
11812;DHT22;5963;50.184;9.162;2023-04-27T08:13:21;13.20;99.10
11812;DHT22;5963;50.184;9.162;2023-04-27T08:15:53;12.70;97.90
11812;DHT22;5963;50.184;9.162;2023-04-27T08:18:26;12.60;97.80
11812;DHT22;5963;50.184;9.162;2023-04-27T08:20:55;12.60;97.20
11812;DHT22;5963;50.184;9.162;2023-04-27T08:23:29;13.00;96.80
11812;DHT22;5963;50.184;9.162;2023-04-27T08:26:00;13.50;96.70
11812;DHT22;5963;50.184;9.162;2023-04-27T08:28:30;13.90;95.00
11812;DHT22;5963;50.184;9.162;2023-04-27T08:30:59;13.90;95.60
11812;DHT22;5963;50.184;9.162;2023-04-27T08:33:29;13.90;95.30
11812;DHT22;5963;50.184;9.162;2023-04-27T08:35:59;14.20;94.60
11812;DHT22;5963;50.184;9.162;2023-04-27T08:38:30;13.80;93.60
11812;DHT22;5963;50.184;9.162;2023-04-27T08:41:01;13.80;94.50
11812;DHT22;5963;50.184;9.162;2023-04-27T08:43:48;14.30;93.10
11812;DHT22;5963;50.184;9.162;2023-04-27T08:46:19;14.50;91.20
11812;DHT22;5963;50.184;9.162;2023-04-27T08:48:51;14.80;90.20
11812;DHT22;5963;50.184;9.162;2023-04-27T08:51:21;14.30;90.00
11812;DHT22;5963;50.184;9.162;2023-04-27T08:53:55;14.10;89.00
11812;DHT22;5963;50.184;9.162;2023-04-27T08:56:26;14.00;88.20
11812;DHT22;5963;50.184;9.162;2023-04-27T08:58:57;14.40;87.10
11812;DHT22;5963;50.184;9.162;2023-04-27T09:01:27;14.90;88.30
11812;DHT22;5963;50.184;9.162;2023-04-27T09:03:58;15.00;87.50
11812;DHT22;5963;50.184;9.162;2023-04-27T09:06:33;14.70;89.70
11812;DHT22;5963;50.184;9.162;2023-04-27T09:09:04;15.10;89.40
11812;DHT22;5963;50.184;9.162;2023-04-27T09:11:37;15.30;87.20
11812;DHT22;5963;50.184;9.162;2023-04-27T09:14:17;15.00;88.50
11812;DHT22;5963;50.184;9.162;2023-04-27T09:16:55;15.40;86.40
11812;DHT22;5963;50.184;9.162;2023-04-27T09:19:28;15.60;85.40
11812;DHT22;5963;50.184;9.162;2023-04-27T09:22:03;15.80;84.70
11812;DHT22;5963;50.184;9.162;2023-04-27T09:24:34;15.70;86.40
11812;DHT22;5963;50.184;9.162;2023-04-27T09:27:05;15.70;84.50
11812;DHT22;5963;50.184;9.162;2023-04-27T09:29:37;15.90;85.90
11812;DHT22;5963;50.184;9.162;2023-04-27T09:32:17;16.10;86.00
11812;DHT22;5963;50.184;9.162;2023-04-27T09:34:48;16.10;83.80
11812;DHT22;5963;50.184;9.162;2023-04-27T09:37:19;16.20;84.30
11812;DHT22;5963;50.184;9.162;2023-04-27T09:39:50;16.40;84.70
11812;DHT22;5963;50.184;9.162;2023-04-27T09:42:20;16.50;86.60
11812;DHT22;5963;50.184;9.162;2023-04-27T09:44:51;16.90;84.90
11812;DHT22;5963;50.184;9.162;2023-04-27T09:47:21;16.80;84.20
11812;DHT22;5963;50.184;9.162;2023-04-27T09:49:51;16.70;83.80
11812;DHT22;5963;50.184;9.162;2023-04-27T09:52:21;16.70;82.20
11812;DHT22;5963;50.184;9.162;2023-04-27T09:54:54;16.50;84.20
11812;DHT22;5963;50.184;9.162;2023-04-27T09:57:32;16.50;85.00
11812;DHT22;5963;50.184;9.162;2023-04-27T10:00:11;16.80;82.90
11812;DHT22;5963;50.184;9.162;2023-04-27T10:02:53;16.50;83.00
11812;DHT22;5963;50.184;9.162;2023-04-27T10:05:33;17.00;85.10
11812;DHT22;5963;50.184;9.162;2023-04-27T10:08:06;17.30;83.90
11812;DHT22;5963;50.184;9.162;2023-04-27T10:10:49;17.30;81.40
11812;DHT22;5963;50.184;9.162;2023-04-27T10:13:23;17.20;80.10
11812;DHT22;5963;50.184;9.162;2023-04-27T10:15:54;16.70;82.50
11812;DHT22;5963;50.184;9.162;2023-04-27T10:18:27;16.90;80.80
11812;DHT22;5963;50.184;9.162;2023-04-27T10:21:07;17.40;81.10
11812;DHT22;5963;50.184;9.162;2023-04-27T10:23:46;17.20;79.10
11812;DHT22;5963;50.184;9.162;2023-04-27T10:26:25;17.00;82.10
11812;DHT22;5963;50.184;9.162;2023-04-27T10:28:58;17.50;82.00
11812;DHT22;5963;50.184;9.162;2023-04-27T10:31:33;17.80;82.40
11812;DHT22;5963;50.184;9.162;2023-04-27T10:34:05;18.20;82.00
11812;DHT22;5963;50.184;9.162;2023-04-27T10:36:36;18.30;80.10
11812;DHT22;5963;50.184;9.162;2023-04-27T10:39:13;17.80;78.80
11812;DHT22;5963;50.184;9.162;2023-04-27T10:41:51;17.80;79.40
11812;DHT22;5963;50.184;9.162;2023-04-27T10:44:26;17.70;77.40
11812;DHT22;5963;50.184;9.162;2023-04-27T10:46:57;17.00;77.80
11812;DHT22;5963;50.184;9.162;2023-04-27T10:49:28;17.40;80.10
11812;DHT22;5963;50.184;9.162;2023-04-27T10:51:59;17.00;79.70
11812;DHT22;5963;50.184;9.162;2023-04-27T10:54:32;17.40;78.80
11812;DHT22;5963;50.184;9.162;2023-04-27T10:57:07;17.40;76.40
11812;DHT22;5963;50.184;9.162;2023-04-27T10:59:47;17.10;78.80
11812;DHT22;5963;50.184;9.162;2023-04-27T11:02:23;17.70;78.50
11812;DHT22;5963;50.184;9.162;2023-04-27T11:04:54;17.90;79.20
11812;DHT22;5963;50.184;9.162;2023-04-27T11:07:25;17.80;79.30
11812;DHT22;5963;50.184;9.162;2023-04-27T11:09:55;17.00;78.00
11812;DHT22;5963;50.184;9.162;2023-04-27T11:12:26;16.90;81.10
11812;DHT22;5963;50.184;9.162;2023-04-27T11:14:58;17.10;78.40
11812;DHT22;5963;50.184;9.162;2023-04-27T11:17:31;16.90;80.00
11812;DHT22;5963;50.184;9.162;2023-04-27T11:20:01;16.70;79.10
11812;DHT22;5963;50.184;9.162;2023-04-27T11:22:32;16.50;80.90
11812;DHT22;5963;50.184;9.162;2023-04-27T11:25:03;17.20;79.40
11812;DHT22;5963;50.184;9.162;2023-04-27T11:27:41;17.50;79.40
11812;DHT22;5963;50.184;9.162;2023-04-27T11:30:23;18.10;81.30
11812;DHT22;5963;50.184;9.162;2023-04-27T11:32:53;18.30;77.90
11812;DHT22;5963;50.184;9.162;2023-04-27T11:35:33;18.30;77.80
11812;DHT22;5963;50.184;9.162;2023-04-27T11:38:03;18.40;79.50
11812;DHT22;5963;50.184;9.162;2023-04-27T11:40:30;18.40;78.00
11812;DHT22;5963;50.184;9.162;2023-04-27T11:43:04;18.50;77.40
11812;DHT22;5963;50.184;9.162;2023-04-27T11:45:34;18.50;77.30
11812;DHT22;5963;50.184;9.162;2023-04-27T11:48:04;18.00;79.90
11812;DHT22;5963;50.184;9.162;2023-04-27T11:50:34;18.40;80.10
11812;DHT22;5963;50.184;9.162;2023-04-27T11:53:04;18.20;78.10
11812;DHT22;5963;50.184;9.162;2023-04-27T11:55:36;18.10;76.50
11812;DHT22;5963;50.184;9.162;2023-04-27T11:58:14;18.20;78.80
11812;DHT22;5963;50.184;9.162;2023-04-27T12:00:44;18.10;78.90
11812;DHT22;5963;50.184;9.162;2023-04-27T12:03:14;18.00;78.60
11812;DHT22;5963;50.184;9.162;2023-04-27T12:05:51;17.90;81.00
11812;DHT22;5963;50.184;9.162;2023-04-27T12:08:22;18.20;79.10
11812;DHT22;5963;50.184;9.162;2023-04-27T12:10:52;18.00;77.90
11812;DHT22;5963;50.184;9.162;2023-04-27T12:13:31;18.10;79.20
11812;DHT22;5963;50.184;9.162;2023-04-27T12:15:59;18.40;79.90
11812;DHT22;5963;50.184;9.162;2023-04-27T12:18:27;18.60;77.20
11812;DHT22;5963;50.184;9.162;2023-04-27T12:20:55;18.30;75.80
11812;DHT22;5963;50.184;9.162;2023-04-27T12:23:28;18.10;76.70
11812;DHT22;5963;50.184;9.162;2023-04-27T12:25:56;18.20;77.00
11812;DHT22;5963;50.184;9.162;2023-04-27T12:28:24;18.30;76.70
11812;DHT22;5963;50.184;9.162;2023-04-27T12:30:53;18.30;77.10
11812;DHT22;5963;50.184;9.162;2023-04-27T12:33:21;18.00;77.20
11812;DHT22;5963;50.184;9.162;2023-04-27T12:35:49;18.00;77.20
11812;DHT22;5963;50.184;9.162;2023-04-27T12:38:17;18.20;77.90
11812;DHT22;5963;50.184;9.162;2023-04-27T12:40:46;18.00;78.50
11812;DHT22;5963;50.184;9.162;2023-04-27T12:43:14;17.60;77.50
11812;DHT22;5963;50.184;9.162;2023-04-27T12:45:41;17.80;78.80
11812;DHT22;5963;50.184;9.162;2023-04-27T12:48:11;18.10;77.80
11812;DHT22;5963;50.184;9.162;2023-04-27T12:50:43;18.10;78.20
11812;DHT22;5963;50.184;9.162;2023-04-27T12:53:11;18.20;78.20
11812;DHT22;5963;50.184;9.162;2023-04-27T12:55:39;17.80;78.10
11812;DHT22;5963;50.184;9.162;2023-04-27T12:58:07;18.00;76.60
11812;DHT22;5963;50.184;9.162;2023-04-27T13:00:34;16.80;79.10
11812;DHT22;5963;50.184;9.162;2023-04-27T13:03:02;17.30;82.10
11812;DHT22;5963;50.184;9.162;2023-04-27T13:05:33;17.80;78.90
11812;DHT22;5963;50.184;9.162;2023-04-27T13:08:01;18.10;78.20
11812;DHT22;5963;50.184;9.162;2023-04-27T13:10:29;18.30;78.30
11812;DHT22;5963;50.184;9.162;2023-04-27T13:12:57;18.30;77.80
11812;DHT22;5963;50.184;9.162;2023-04-27T13:15:26;18.30;76.70
11812;DHT22;5963;50.184;9.162;2023-04-27T13:17:55;18.40;77.60
11812;DHT22;5963;50.184;9.162;2023-04-27T13:20:25;18.20;78.30
11812;DHT22;5963;50.184;9.162;2023-04-27T13:22:54;18.30;77.30
11812;DHT22;5963;50.184;9.162;2023-04-27T13:25:28;17.70;78.40
11812;DHT22;5963;50.184;9.162;2023-04-27T13:27:56;17.30;78.00
11812;DHT22;5963;50.184;9.162;2023-04-27T13:30:25;17.60;77.90
11812;DHT22;5963;50.184;9.162;2023-04-27T13:32:53;18.00;78.40
11812;DHT22;5963;50.184;9.162;2023-04-27T13:35:36;18.10;76.70
11812;DHT22;5963;50.184;9.162;2023-04-27T13:38:05;17.80;76.40
11812;DHT22;5963;50.184;9.162;2023-04-27T13:40:34;17.70;77.40
11812;DHT22;5963;50.184;9.162;2023-04-27T13:43:04;18.00;77.50
11812;DHT22;5963;50.184;9.162;2023-04-27T13:45:32;18.20;77.10
11812;DHT22;5963;50.184;9.162;2023-04-27T13:48:00;18.30;77.40
11812;DHT22;5963;50.184;9.162;2023-04-27T13:50:28;18.50;77.80
11812;DHT22;5963;50.184;9.162;2023-04-27T13:52:56;18.80;76.70
11812;DHT22;5963;50.184;9.162;2023-04-27T13:55:25;18.70;73.90
11812;DHT22;5963;50.184;9.162;2023-04-27T13:57:53;18.70;73.70
11812;DHT22;5963;50.184;9.162;2023-04-27T14:00:21;18.30;76.10
11812;DHT22;5963;50.184;9.162;2023-04-27T14:02:49;18.40;75.70
11812;DHT22;5963;50.184;9.162;2023-04-27T14:05:18;18.30;74.60
11812;DHT22;5963;50.184;9.162;2023-04-27T14:07:48;18.40;76.10
11812;DHT22;5963;50.184;9.162;2023-04-27T14:10:16;18.60;76.30
11812;DHT22;5963;50.184;9.162;2023-04-27T14:12:45;18.50;76.60
11812;DHT22;5963;50.184;9.162;2023-04-27T14:15:16;18.60;75.20
11812;DHT22;5963;50.184;9.162;2023-04-27T14:17:44;18.40;74.90
11812;DHT22;5963;50.184;9.162;2023-04-27T14:20:12;18.30;75.30
11812;DHT22;5963;50.184;9.162;2023-04-27T14:22:40;18.20;75.40
11812;DHT22;5963;50.184;9.162;2023-04-27T14:25:08;17.50;75.10
11812;DHT22;5963;50.184;9.162;2023-04-27T14:27:36;17.60;77.30
11812;DHT22;5963;50.184;9.162;2023-04-27T14:30:07;17.80;76.50
11812;DHT22;5963;50.184;9.162;2023-04-27T14:32:35;17.90;74.50
11812;DHT22;5963;50.184;9.162;2023-04-27T14:35:04;17.70;75.00
11812;DHT22;5963;50.184;9.162;2023-04-27T14:37:32;17.30;77.40
11812;DHT22;5963;50.184;9.162;2023-04-27T14:40:00;17.30;76.90
11812;DHT22;5963;50.184;9.162;2023-04-27T14:42:30;17.20;77.30
11812;DHT22;5963;50.184;9.162;2023-04-27T14:44:59;17.60;75.80
11812;DHT22;5963;50.184;9.162;2023-04-27T14:47:28;18.00;74.20
11812;DHT22;5963;50.184;9.162;2023-04-27T14:49:56;18.10;75.90
11812;DHT22;5963;50.184;9.162;2023-04-27T14:52:24;18.50;75.40
11812;DHT22;5963;50.184;9.162;2023-04-27T14:54:52;18.70;75.50
11812;DHT22;5963;50.184;9.162;2023-04-27T14:57:21;18.60;73.90
11812;DHT22;5963;50.184;9.162;2023-04-27T14:59:49;18.50;75.20
11812;DHT22;5963;50.184;9.162;2023-04-27T15:02:16;18.50;74.80
11812;DHT22;5963;50.184;9.162;2023-04-27T15:04:46;18.10;74.50
11812;DHT22;5963;50.184;9.162;2023-04-27T15:07:14;17.70;74.90
11812;DHT22;5963;50.184;9.162;2023-04-27T15:09:42;18.00;74.70
11812;DHT22;5963;50.184;9.162;2023-04-27T15:12:10;17.90;75.90
11812;DHT22;5963;50.184;9.162;2023-04-27T15:14:38;17.90;75.20
11812;DHT22;5963;50.184;9.162;2023-04-27T15:17:06;18.20;75.70
11812;DHT22;5963;50.184;9.162;2023-04-27T15:19:34;18.40;74.60
11812;DHT22;5963;50.184;9.162;2023-04-27T15:22:04;18.30;74.20
11812;DHT22;5963;50.184;9.162;2023-04-27T15:24:34;18.50;74.90
11812;DHT22;5963;50.184;9.162;2023-04-27T15:27:06;18.90;76.50
11812;DHT22;5963;50.184;9.162;2023-04-27T15:29:36;18.80;75.40
11812;DHT22;5963;50.184;9.162;2023-04-27T15:32:04;18.70;74.30
11812;DHT22;5963;50.184;9.162;2023-04-27T15:34:32;18.40;74.60
11812;DHT22;5963;50.184;9.162;2023-04-27T15:37:00;18.30;76.00
11812;DHT22;5963;50.184;9.162;2023-04-27T15:39:30;18.30;74.30
11812;DHT22;5963;50.184;9.162;2023-04-27T15:41:58;18.00;74.20
11812;DHT22;5963;50.184;9.162;2023-04-27T15:44:27;18.00;75.00
11812;DHT22;5963;50.184;9.162;2023-04-27T15:46:55;18.20;75.60
11812;DHT22;5963;50.184;9.162;2023-04-27T15:49:23;18.20;75.00
11812;DHT22;5963;50.184;9.162;2023-04-27T15:51:51;18.40;75.50
11812;DHT22;5963;50.184;9.162;2023-04-27T15:54:20;18.20;76.10
11812;DHT22;5963;50.184;9.162;2023-04-27T15:56:50;18.20;76.20
11812;DHT22;5963;50.184;9.162;2023-04-27T15:59:18;18.20;76.60
11812;DHT22;5963;50.184;9.162;2023-04-27T16:01:46;18.10;75.40
11812;DHT22;5963;50.184;9.162;2023-04-27T16:04:14;18.20;76.30
11812;DHT22;5963;50.184;9.162;2023-04-27T16:06:44;18.20;76.20
11812;DHT22;5963;50.184;9.162;2023-04-27T16:09:15;18.20;75.20
11812;DHT22;5963;50.184;9.162;2023-04-27T16:11:43;18.20;75.20
11812;DHT22;5963;50.184;9.162;2023-04-27T16:14:13;18.20;75.70
11812;DHT22;5963;50.184;9.162;2023-04-27T16:16:41;18.00;75.60
11812;DHT22;5963;50.184;9.162;2023-04-27T16:19:09;18.00;76.50
11812;DHT22;5963;50.184;9.162;2023-04-27T16:21:40;18.10;77.30
11812;DHT22;5963;50.184;9.162;2023-04-27T16:24:08;18.20;76.90
11812;DHT22;5963;50.184;9.162;2023-04-27T16:26:36;18.20;75.10
11812;DHT22;5963;50.184;9.162;2023-04-27T16:29:04;18.30;77.00
11812;DHT22;5963;50.184;9.162;2023-04-27T16:31:34;18.30;77.10
11812;DHT22;5963;50.184;9.162;2023-04-27T16:34:05;18.30;75.80
11812;DHT22;5963;50.184;9.162;2023-04-27T16:36:32;18.30;76.10
11812;DHT22;5963;50.184;9.162;2023-04-27T16:39:01;18.20;75.00
11812;DHT22;5963;50.184;9.162;2023-04-27T16:41:30;18.10;76.30
11812;DHT22;5963;50.184;9.162;2023-04-27T16:43:58;17.90;76.50
11812;DHT22;5963;50.184;9.162;2023-04-27T16:46:27;17.90;76.90
11812;DHT22;5963;50.184;9.162;2023-04-27T16:48:58;18.00;76.30
11812;DHT22;5963;50.184;9.162;2023-04-27T16:51:27;18.00;78.50
11812;DHT22;5963;50.184;9.162;2023-04-27T16:53:56;18.00;77.20
11812;DHT22;5963;50.184;9.162;2023-04-27T16:56:25;17.90;78.30
11812;DHT22;5963;50.184;9.162;2023-04-27T16:58:54;17.80;78.40
11812;DHT22;5963;50.184;9.162;2023-04-27T17:01:24;17.80;77.80
11812;DHT22;5963;50.184;9.162;2023-04-27T17:03:55;17.60;78.20